sensor_id;sensor_type;location;lat;lon;timestamp;P1;durP1;ratioP1;P2;durP2;ratioP2
8074;SDS011;4080;42.676;23.372;2023-10-19T00:00:30;16.50;;;12.73;;
8074;SDS011;4080;42.676;23.372;2023-10-19T00:02:58;16.50;;;14.77;;
8074;SDS011;4080;42.676;23.372;2023-10-19T00:05:27;16.40;;;13.97;;
8074;SDS011;4080;42.676;23.372;2023-10-19T00:07:56;14.97;;;13.30;;
8074;SDS011;4080;42.676;23.372;2023-10-19T00:10:23;17.03;;;13.63;;
8074;SDS011;4080;42.676;23.372;2023-10-19T00:12:51;16.80;;;14.60;;
8074;SDS011;4080;42.676;23.372;2023-10-19T00:15:25;15.90;;;13.90;;
8074;SDS011;4080;42.676;23.372;2023-10-19T00:17:55;16.00;;;14.07;;
8074;SDS011;4080;42.676;23.372;2023-10-19T00:20:21;15.57;;;13.60;;
8074;SDS011;4080;42.676;23.372;2023-10-19T00:23:03;17.03;;;13.60;;
8074;SDS011;4080;42.676;23.372;2023-10-19T00:25:31;18.20;;;14.17;;
8074;SDS011;4080;42.676;23.372;2023-10-19T00:27:59;15.70;;;13.17;;
8074;SDS011;4080;42.676;23.372;2023-10-19T00:30:28;16.37;;;13.83;;
8074;SDS011;4080;42.676;23.372;2023-10-19T00:32:58;19.53;;;13.87;;
8074;SDS011;4080;42.676;23.372;2023-10-19T00:35:29;16.37;;;14.23;;
8074;SDS011;4080;42.676;23.372;2023-10-19T00:38:01;18.00;;;14.17;;
8074;SDS011;4080;42.676;23.372;2023-10-19T00:40:43;15.80;;;14.00;;
8074;SDS011;4080;42.676;23.372;2023-10-19T00:43:12;19.83;;;14.60;;
8074;SDS011;4080;42.676;23.372;2023-10-19T00:45:43;17.07;;;14.10;;
8074;SDS011;4080;42.676;23.372;2023-10-19T00:48:12;19.27;;;14.37;;
8074;SDS011;4080;42.676;23.372;2023-10-19T00:50:39;16.53;;;14.27;;
8074;SDS011;4080;42.676;23.372;2023-10-19T00:53:06;15.67;;;13.93;;
8074;SDS011;4080;42.676;23.372;2023-10-19T00:55:33;17.77;;;14.20;;
8074;SDS011;4080;42.676;23.372;2023-10-19T00:58:02;15.43;;;12.77;;
8074;SDS011;4080;42.676;23.372;2023-10-19T01:00:35;16.77;;;13.40;;
8074;SDS011;4080;42.676;23.372;2023-10-19T01:03:09;18.37;;;13.57;;
8074;SDS011;4080;42.676;23.372;2023-10-19T01:05:42;18.37;;;14.07;;
8074;SDS011;4080;42.676;23.372;2023-10-19T01:08:14;16.13;;;13.17;;
8074;SDS011;4080;42.676;23.372;2023-10-19T01:10:49;17.60;;;13.03;;
8074;SDS011;4080;42.676;23.372;2023-10-19T01:13:19;15.93;;;13.27;;
8074;SDS011;4080;42.676;23.372;2023-10-19T01:15:52;15.03;;;12.50;;
8074;SDS011;4080;42.676;23.372;2023-10-19T01:18:21;15.50;;;13.17;;
8074;SDS011;4080;42.676;23.372;2023-10-19T01:20:54;16.00;;;13.10;;
8074;SDS011;4080;42.676;23.372;2023-10-19T01:23:22;16.63;;;13.20;;
8074;SDS011;4080;42.676;23.372;2023-10-19T01:25:53;15.03;;;13.03;;
8074;SDS011;4080;42.676;23.372;2023-10-19T01:28:33;15.17;;;13.57;;
8074;SDS011;4080;42.676;23.372;2023-10-19T01:31:13;14.23;;;12.70;;
8074;SDS011;4080;42.676;23.372;2023-10-19T01:33:42;14.53;;;13.00;;
8074;SDS011;4080;42.676;23.372;2023-10-19T01:36:10;16.50;;;14.27;;
8074;SDS011;4080;42.676;23.372;2023-10-19T01:38:38;17.77;;;13.70;;
8074;SDS011;4080;42.676;23.372;2023-10-19T01:41:05;14.50;;;12.80;;
8074;SDS011;4080;42.676;23.372;2023-10-19T01:43:33;16.63;;;13.47;;
8074;SDS011;4080;42.676;23.372;2023-10-19T01:45:59;16.33;;;13.80;;
8074;SDS011;4080;42.676;23.372;2023-10-19T01:48:30;19.30;;;14.00;;
8074;SDS011;4080;42.676;23.372;2023-10-19T01:50:58;16.93;;;13.87;;
8074;SDS011;4080;42.676;23.372;2023-10-19T01:53:26;14.33;;;12.83;;
8074;SDS011;4080;42.676;23.372;2023-10-19T01:55:54;15.67;;;13.40;;
8074;SDS011;4080;42.676;23.372;2023-10-19T01:58:24;15.47;;;13.03;;
8074;SDS011;4080;42.676;23.372;2023-10-19T02:00:50;15.40;;;13.70;;
8074;SDS011;4080;42.676;23.372;2023-10-19T02:03:20;15.37;;;12.87;;
8074;SDS011;4080;42.676;23.372;2023-10-19T02:05:47;18.30;;;15.07;;
8074;SDS011;4080;42.676;23.372;2023-10-19T02:08:15;17.20;;;14.50;;
8074;SDS011;4080;42.676;23.372;2023-10-19T02:10:45;17.83;;;13.50;;
8074;SDS011;4080;42.676;23.372;2023-10-19T02:13:15;14.27;;;12.73;;
8074;SDS011;4080;42.676;23.372;2023-10-19T02:15:44;16.13;;;12.70;;
8074;SDS011;4080;42.676;23.372;2023-10-19T02:18:10;16.20;;;14.50;;
8074;SDS011;4080;42.676;23.372;2023-10-19T02:20:36;22.03;;;17.40;;
8074;SDS011;4080;42.676;23.372;2023-10-19T02:23:05;25.90;;;21.33;;
8074;SDS011;4080;42.676;23.372;2023-10-19T02:25:33;25.37;;;21.40;;
8074;SDS011;4080;42.676;23.372;2023-10-19T02:28:02;22.73;;;20.13;;
8074;SDS011;4080;42.676;23.372;2023-10-19T02:30:33;22.67;;;19.37;;
8074;SDS011;4080;42.676;23.372;2023-10-19T02:32:59;24.87;;;19.30;;
8074;SDS011;4080;42.676;23.372;2023-10-19T02:35:28;23.23;;;19.43;;
8074;SDS011;4080;42.676;23.372;2023-10-19T02:37:54;25.17;;;20.30;;
8074;SDS011;4080;42.676;23.372;2023-10-19T02:40:21;38.30;;;30.60;;
8074;SDS011;4080;42.676;23.372;2023-10-19T02:42:50;39.80;;;27.70;;
8074;SDS011;4080;42.676;23.372;2023-10-19T02:45:18;26.93;;;21.80;;
8074;SDS011;4080;42.676;23.372;2023-10-19T02:47:46;26.60;;;20.43;;
8074;SDS011;4080;42.676;23.372;2023-10-19T02:50:15;23.47;;;19.90;;
8074;SDS011;4080;42.676;23.372;2023-10-19T02:52:41;24.17;;;20.17;;
8074;SDS011;4080;42.676;23.372;2023-10-19T02:55:09;24.40;;;20.53;;
8074;SDS011;4080;42.676;23.372;2023-10-19T02:57:35;23.10;;;19.97;;
8074;SDS011;4080;42.676;23.372;2023-10-19T03:00:04;24.77;;;20.27;;
8074;SDS011;4080;42.676;23.372;2023-10-19T03:02:37;26.83;;;22.93;;
8074;SDS011;4080;42.676;23.372;2023-10-19T03:05:06;27.20;;;23.33;;
8074;SDS011;4080;42.676;23.372;2023-10-19T03:07:39;31.40;;;25.03;;
8074;SDS011;4080;42.676;23.372;2023-10-19T03:10:08;32.57;;;26.77;;
8074;SDS011;4080;42.676;23.372;2023-10-19T03:12:48;32.90;;;27.07;;
8074;SDS011;4080;42.676;23.372;2023-10-19T03:15:15;35.70;;;29.20;;
8074;SDS011;4080;42.676;23.372;2023-10-19T03:17:42;30.07;;;25.57;;
8074;SDS011;4080;42.676;23.372;2023-10-19T03:20:11;32.73;;;26.63;;
8074;SDS011;4080;42.676;23.372;2023-10-19T03:22:37;31.63;;;26.70;;
8074;SDS011;4080;42.676;23.372;2023-10-19T03:25:04;31.33;;;25.80;;
8074;SDS011;4080;42.676;23.372;2023-10-19T03:27:58;30.87;;;27.27;;
8074;SDS011;4080;42.676;23.372;2023-10-19T03:30:31;29.60;;;25.07;;
8074;SDS011;4080;42.676;23.372;2023-10-19T03:32:58;31.40;;;24.73;;
8074;SDS011;4080;42.676;23.372;2023-10-19T03:35:27;26.13;;;23.07;;
8074;SDS011;4080;42.676;23.372;2023-10-19T03:37:54;29.50;;;24.90;;
8074;SDS011;4080;42.676;23.372;2023-10-19T03:40:25;32.73;;;27.77;;
8074;SDS011;4080;42.676;23.372;2023-10-19T03:42:55;32.70;;;26.93;;
8074;SDS011;4080;42.676;23.372;2023-10-19T03:45:23;30.27;;;24.83;;
8074;SDS011;4080;42.676;23.372;2023-10-19T03:47:52;28.87;;;23.23;;
8074;SDS011;4080;42.676;23.372;2023-10-19T03:50:21;27.90;;;22.77;;
8074;SDS011;4080;42.676;23.372;2023-10-19T03:52:50;27.33;;;21.90;;
8074;SDS011;4080;42.676;23.372;2023-10-19T03:55:17;23.17;;;19.87;;
8074;SDS011;4080;42.676;23.372;2023-10-19T03:57:44;26.23;;;21.33;;
8074;SDS011;4080;42.676;23.372;2023-10-19T04:00:15;28.17;;;20.53;;
8074;SDS011;4080;42.676;23.372;2023-10-19T04:02:44;27.73;;;21.53;;
8074;SDS011;4080;42.676;23.372;2023-10-19T04:05:12;26.17;;;22.27;;
8074;SDS011;4080;42.676;23.372;2023-10-19T04:07:45;28.60;;;21.30;;
8074;SDS011;4080;42.676;23.372;2023-10-19T04:10:16;28.53;;;22.43;;
8074;SDS011;4080;42.676;23.372;2023-10-19T04:12:55;24.40;;;19.57;;
8074;SDS011;4080;42.676;23.372;2023-10-19T04:15:25;22.80;;;19.63;;
8074;SDS011;4080;42.676;23.372;2023-10-19T04:17:53;21.37;;;18.03;;
8074;SDS011;4080;42.676;23.372;2023-10-19T04:20:23;24.77;;;19.67;;
8074;SDS011;4080;42.676;23.372;2023-10-19T04:22:55;28.60;;;22.10;;
8074;SDS011;4080;42.676;23.372;2023-10-19T04:25:25;33.43;;;25.13;;
8074;SDS011;4080;42.676;23.372;2023-10-19T04:27:52;37.30;;;28.73;;
8074;SDS011;4080;42.676;23.372;2023-10-19T04:30:22;33.53;;;29.67;;
8074;SDS011;4080;42.676;23.372;2023-10-19T04:32:49;39.30;;;32.53;;
8074;SDS011;4080;42.676;23.372;2023-10-19T04:35:17;38.43;;;30.67;;
8074;SDS011;4080;42.676;23.372;2023-10-19T04:37:48;41.67;;;35.37;;
8074;SDS011;4080;42.676;23.372;2023-10-19T04:40:15;45.87;;;36.17;;
8074;SDS011;4080;42.676;23.372;2023-10-19T04:42:44;44.43;;;36.27;;
8074;SDS011;4080;42.676;23.372;2023-10-19T04:45:11;50.27;;;40.57;;
8074;SDS011;4080;42.676;23.372;2023-10-19T04:47:39;46.30;;;39.27;;
8074;SDS011;4080;42.676;23.372;2023-10-19T04:50:06;52.13;;;43.00;;
8074;SDS011;4080;42.676;23.372;2023-10-19T04:52:35;63.47;;;47.53;;
8074;SDS011;4080;42.676;23.372;2023-10-19T04:55:03;58.20;;;46.90;;
8074;SDS011;4080;42.676;23.372;2023-10-19T04:57:30;58.43;;;48.17;;
8074;SDS011;4080;42.676;23.372;2023-10-19T04:59:58;62.90;;;50.30;;
8074;SDS011;4080;42.676;23.372;2023-10-19T05:02:25;65.57;;;53.43;;
8074;SDS011;4080;42.676;23.372;2023-10-19T05:04:52;68.73;;;55.17;;
8074;SDS011;4080;42.676;23.372;2023-10-19T05:07:19;66.87;;;52.73;;
8074;SDS011;4080;42.676;23.372;2023-10-19T05:09:46;61.53;;;50.83;;
8074;SDS011;4080;42.676;23.372;2023-10-19T05:12:13;43.80;;;35.50;;
8074;SDS011;4080;42.676;23.372;2023-10-19T05:14:41;62.67;;;49.00;;
8074;SDS011;4080;42.676;23.372;2023-10-19T05:17:10;22.80;;;18.03;;
8074;SDS011;4080;42.676;23.372;2023-10-19T05:19:38;47.40;;;37.77;;
8074;SDS011;4080;42.676;23.372;2023-10-19T05:22:06;42.33;;;34.63;;
8074;SDS011;4080;42.676;23.372;2023-10-19T05:24:34;33.63;;;26.80;;
8074;SDS011;4080;42.676;23.372;2023-10-19T05:27:02;37.80;;;33.70;;
8074;SDS011;4080;42.676;23.372;2023-10-19T05:29:31;35.67;;;31.60;;
8074;SDS011;4080;42.676;23.372;2023-10-19T05:31:58;33.63;;;28.90;;
8074;SDS011;4080;42.676;23.372;2023-10-19T05:34:27;40.00;;;29.80;;
8074;SDS011;4080;42.676;23.372;2023-10-19T05:36:56;23.87;;;19.50;;
8074;SDS011;4080;42.676;23.372;2023-10-19T05:39:24;29.17;;;20.57;;
8074;SDS011;4080;42.676;23.372;2023-10-19T05:41:53;34.83;;;27.17;;
8074;SDS011;4080;42.676;23.372;2023-10-19T05:44:19;32.77;;;25.67;;
8074;SDS011;4080;42.676;23.372;2023-10-19T05:46:50;31.40;;;25.70;;
8074;SDS011;4080;42.676;23.372;2023-10-19T05:49:17;27.93;;;24.73;;
8074;SDS011;4080;42.676;23.372;2023-10-19T05:51:46;36.93;;;30.20;;
8074;SDS011;4080;42.676;23.372;2023-10-19T05:54:13;34.47;;;28.07;;
8074;SDS011;4080;42.676;23.372;2023-10-19T05:56:40;33.77;;;27.77;;
8074;SDS011;4080;42.676;23.372;2023-10-19T05:59:07;36.60;;;28.73;;
8074;SDS011;4080;42.676;23.372;2023-10-19T06:01:35;39.27;;;32.63;;
8074;SDS011;4080;42.676;23.372;2023-10-19T06:04:02;41.47;;;36.73;;
8074;SDS011;4080;42.676;23.372;2023-10-19T06:06:29;42.97;;;35.20;;
8074;SDS011;4080;42.676;23.372;2023-10-19T06:08:57;39.47;;;32.07;;
8074;SDS011;4080;42.676;23.372;2023-10-19T06:11:28;31.50;;;24.97;;
8074;SDS011;4080;42.676;23.372;2023-10-19T06:13:57;32.83;;;26.37;;
8074;SDS011;4080;42.676;23.372;2023-10-19T06:16:24;29.13;;;22.90;;
8074;SDS011;4080;42.676;23.372;2023-10-19T06:18:53;26.83;;;23.20;;
8074;SDS011;4080;42.676;23.372;2023-10-19T06:21:19;30.30;;;24.47;;
8074;SDS011;4080;42.676;23.372;2023-10-19T06:23:46;31.90;;;24.50;;
8074;SDS011;4080;42.676;23.372;2023-10-19T06:26:15;32.07;;;23.60;;
8074;SDS011;4080;42.676;23.372;2023-10-19T06:28:41;28.13;;;21.13;;
8074;SDS011;4080;42.676;23.372;2023-10-19T06:31:08;24.13;;;20.47;;
8074;SDS011;4080;42.676;23.372;2023-10-19T06:33:35;25.63;;;20.00;;
8074;SDS011;4080;42.676;23.372;2023-10-19T06:36:06;20.87;;;18.67;;
8074;SDS011;4080;42.676;23.372;2023-10-19T06:38:34;24.27;;;16.93;;
8074;SDS011;4080;42.676;23.372;2023-10-19T06:41:01;18.63;;;16.57;;
8074;SDS011;4080;42.676;23.372;2023-10-19T06:43:37;26.20;;;19.00;;
8074;SDS011;4080;42.676;23.372;2023-10-19T06:46:04;19.33;;;15.83;;
8074;SDS011;4080;42.676;23.372;2023-10-19T06:48:31;20.70;;;15.07;;
8074;SDS011;4080;42.676;23.372;2023-10-19T06:50:58;19.17;;;15.73;;
8074;SDS011;4080;42.676;23.372;2023-10-19T06:53:25;24.17;;;16.47;;
8074;SDS011;4080;42.676;23.372;2023-10-19T06:55:52;19.70;;;15.30;;
8074;SDS011;4080;42.676;23.372;2023-10-19T06:58:20;19.73;;;15.17;;
8074;SDS011;4080;42.676;23.372;2023-10-19T07:00:52;19.00;;;13.77;;
8074;SDS011;4080;42.676;23.372;2023-10-19T07:03:24;16.50;;;13.73;;
8074;SDS011;4080;42.676;23.372;2023-10-19T07:05:53;19.40;;;14.07;;
8074;SDS011;4080;42.676;23.372;2023-10-19T07:08:21;17.60;;;14.37;;
8074;SDS011;4080;42.676;23.372;2023-10-19T07:10:48;17.60;;;14.07;;
8074;SDS011;4080;42.676;23.372;2023-10-19T07:13:15;17.50;;;13.87;;
8074;SDS011;4080;42.676;23.372;2023-10-19T07:15:44;20.67;;;15.00;;
8074;SDS011;4080;42.676;23.372;2023-10-19T07:18:13;22.13;;;15.67;;
8074;SDS011;4080;42.676;23.372;2023-10-19T07:20:40;22.50;;;15.67;;
8074;SDS011;4080;42.676;23.372;2023-10-19T07:23:07;18.00;;;14.83;;
8074;SDS011;4080;42.676;23.372;2023-10-19T07:25:43;17.60;;;14.60;;
8074;SDS011;4080;42.676;23.372;2023-10-19T07:28:13;15.97;;;14.33;;
8074;SDS011;4080;42.676;23.372;2023-10-19T07:30:41;16.53;;;14.83;;
8074;SDS011;4080;42.676;23.372;2023-10-19T07:33:08;16.17;;;14.07;;
8074;SDS011;4080;42.676;23.372;2023-10-19T07:35:37;21.33;;;14.50;;
8074;SDS011;4080;42.676;23.372;2023-10-19T07:38:07;20.23;;;13.23;;
8074;SDS011;4080;42.676;23.372;2023-10-19T07:40:35;15.73;;;14.03;;
8074;SDS011;4080;42.676;23.372;2023-10-19T07:43:02;14.87;;;13.40;;
8074;SDS011;4080;42.676;23.372;2023-10-19T07:45:29;15.80;;;13.13;;
8074;SDS011;4080;42.676;23.372;2023-10-19T07:47:56;15.27;;;12.30;;
8074;SDS011;4080;42.676;23.372;2023-10-19T07:50:31;15.97;;;11.67;;
8074;SDS011;4080;42.676;23.372;2023-10-19T07:53:00;13.50;;;12.10;;
8074;SDS011;4080;42.676;23.372;2023-10-19T07:55:27;13.67;;;12.27;;
8074;SDS011;4080;42.676;23.372;2023-10-19T07:57:57;17.57;;;12.90;;
8074;SDS011;4080;42.676;23.372;2023-10-19T08:00:26;13.50;;;12.03;;
8074;SDS011;4080;42.676;23.372;2023-10-19T08:02:54;14.43;;;12.20;;
8074;SDS011;4080;42.676;23.372;2023-10-19T08:05:21;18.43;;;12.07;;
8074;SDS011;4080;42.676;23.372;2023-10-19T08:07:49;13.17;;;11.77;;
8074;SDS011;4080;42.676;23.372;2023-10-19T08:10:19;13.10;;;11.67;;
8074;SDS011;4080;42.676;23.372;2023-10-19T08:12:47;13.50;;;11.40;;
8074;SDS011;4080;42.676;23.372;2023-10-19T08:15:15;14.30;;;11.50;;
8074;SDS011;4080;42.676;23.372;2023-10-19T08:17:43;12.03;;;10.83;;
8074;SDS011;4080;42.676;23.372;2023-10-19T08:20:12;10.37;;;9.37;;
8074;SDS011;4080;42.676;23.372;2023-10-19T08:22:48;12.57;;;11.03;;
8074;SDS011;4080;42.676;23.372;2023-10-19T08:25:15;10.63;;;9.53;;
8074;SDS011;4080;42.676;23.372;2023-10-19T08:27:44;10.83;;;8.70;;
8074;SDS011;4080;42.676;23.372;2023-10-19T08:30:13;9.70;;;8.70;;
8074;SDS011;4080;42.676;23.372;2023-10-19T08:32:42;11.27;;;9.90;;
8074;SDS011;4080;42.676;23.372;2023-10-19T08:35:13;11.00;;;9.90;;
8074;SDS011;4080;42.676;23.372;2023-10-19T08:37:40;11.27;;;10.17;;
8074;SDS011;4080;42.676;23.372;2023-10-19T08:40:09;12.33;;;10.07;;
8074;SDS011;4080;42.676;23.372;2023-10-19T08:42:39;11.70;;;10.50;;
8074;SDS011;4080;42.676;23.372;2023-10-19T08:45:08;11.93;;;10.77;;
8074;SDS011;4080;42.676;23.372;2023-10-19T08:47:38;11.87;;;10.37;;
8074;SDS011;4080;42.676;23.372;2023-10-19T08:50:12;14.07;;;10.20;;
8074;SDS011;4080;42.676;23.372;2023-10-19T08:52:40;11.63;;;10.20;;
8074;SDS011;4080;42.676;23.372;2023-10-19T08:55:08;12.13;;;10.53;;
8074;SDS011;4080;42.676;23.372;2023-10-19T08:57:39;10.80;;;9.70;;
8074;SDS011;4080;42.676;23.372;2023-10-19T09:00:08;11.67;;;10.53;;
8074;SDS011;4080;42.676;23.372;2023-10-19T09:02:35;12.07;;;10.87;;
8074;SDS011;4080;42.676;23.372;2023-10-19T09:05:05;11.93;;;10.63;;
8074;SDS011;4080;42.676;23.372;2023-10-19T09:07:33;11.53;;;10.13;;
8074;SDS011;4080;42.676;23.372;2023-10-19T09:10:01;11.47;;;10.33;;
8074;SDS011;4080;42.676;23.372;2023-10-19T09:12:30;13.90;;;10.40;;
8074;SDS011;4080;42.676;23.372;2023-10-19T09:14:57;12.10;;;10.77;;
8074;SDS011;4080;42.676;23.372;2023-10-19T09:17:29;11.17;;;10.27;;
8074;SDS011;4080;42.676;23.372;2023-10-19T09:19:57;12.07;;;10.90;;
8074;SDS011;4080;42.676;23.372;2023-10-19T09:22:24;11.90;;;10.77;;
8074;SDS011;4080;42.676;23.372;2023-10-19T09:24:52;12.00;;;10.90;;
8074;SDS011;4080;42.676;23.372;2023-10-19T09:27:20;12.67;;;11.33;;
8074;SDS011;4080;42.676;23.372;2023-10-19T09:29:48;12.13;;;10.93;;
8074;SDS011;4080;42.676;23.372;2023-10-19T09:32:16;12.07;;;10.93;;
8074;SDS011;4080;42.676;23.372;2023-10-19T09:34:46;14.57;;;10.77;;
8074;SDS011;4080;42.676;23.372;2023-10-19T09:37:14;11.77;;;10.67;;
8074;SDS011;4080;42.676;23.372;2023-10-19T09:39:42;11.33;;;10.20;;
8074;SDS011;4080;42.676;23.372;2023-10-19T09:42:10;12.20;;;10.77;;
8074;SDS011;4080;42.676;23.372;2023-10-19T09:44:41;12.00;;;10.80;;
8074;SDS011;4080;42.676;23.372;2023-10-19T09:47:10;10.33;;;9.33;;
8074;SDS011;4080;42.676;23.372;2023-10-19T09:49:40;11.07;;;9.50;;
8074;SDS011;4080;42.676;23.372;2023-10-19T09:52:10;10.80;;;9.80;;
8074;SDS011;4080;42.676;23.372;2023-10-19T09:54:52;10.80;;;9.80;;
8074;SDS011;4080;42.676;23.372;2023-10-19T09:57:27;11.23;;;10.13;;
8074;SDS011;4080;42.676;23.372;2023-10-19T10:00:02;12.80;;;10.97;;
8074;SDS011;4080;42.676;23.372;2023-10-19T10:02:37;11.60;;;9.70;;
8074;SDS011;4080;42.676;23.372;2023-10-19T10:11:00;12.50;;;10.10;;
8074;SDS011;4080;42.676;23.372;2023-10-19T10:13:42;14.50;;;9.87;;
8074;SDS011;4080;42.676;23.372;2023-10-19T10:16:10;10.40;;;9.20;;
8074;SDS011;4080;42.676;23.372;2023-10-19T10:18:41;10.70;;;9.70;;
8074;SDS011;4080;42.676;23.372;2023-10-19T10:21:10;11.00;;;9.90;;
8074;SDS011;4080;42.676;23.372;2023-10-19T10:23:42;10.17;;;9.27;;
8074;SDS011;4080;42.676;23.372;2023-10-19T10:26:10;9.63;;;8.73;;
8074;SDS011;4080;42.676;23.372;2023-10-19T10:28:39;9.93;;;9.00;;
8074;SDS011;4080;42.676;23.372;2023-10-19T10:31:07;9.37;;;8.47;;
8074;SDS011;4080;42.676;23.372;2023-10-19T10:33:41;9.70;;;8.70;;
8074;SDS011;4080;42.676;23.372;2023-10-19T10:36:11;10.87;;;8.80;;
8074;SDS011;4080;42.676;23.372;2023-10-19T10:38:39;9.97;;;9.00;;
8074;SDS011;4080;42.676;23.372;2023-10-19T10:41:07;9.30;;;8.50;;
8074;SDS011;4080;42.676;23.372;2023-10-19T10:43:47;10.60;;;9.50;;
8074;SDS011;4080;42.676;23.372;2023-10-19T10:46:17;9.67;;;8.77;;
8074;SDS011;4080;42.676;23.372;2023-10-19T10:48:46;9.10;;;8.07;;
8074;SDS011;4080;42.676;23.372;2023-10-19T10:51:17;10.07;;;8.63;;
8074;SDS011;4080;42.676;23.372;2023-10-19T10:53:47;9.63;;;8.67;;
8074;SDS011;4080;42.676;23.372;2023-10-19T10:56:16;10.43;;;8.73;;
8074;SDS011;4080;42.676;23.372;2023-10-19T10:58:43;11.57;;;9.63;;
8074;SDS011;4080;42.676;23.372;2023-10-19T11:01:10;9.57;;;8.57;;
8074;SDS011;4080;42.676;23.372;2023-10-19T11:03:38;11.27;;;9.13;;
8074;SDS011;4080;42.676;23.372;2023-10-19T11:06:05;10.03;;;8.67;;
8074;SDS011;4080;42.676;23.372;2023-10-19T11:08:34;13.20;;;8.63;;
8074;SDS011;4080;42.676;23.372;2023-10-19T11:11:02;11.43;;;9.47;;
8074;SDS011;4080;42.676;23.372;2023-10-19T11:13:32;10.70;;;9.30;;
8074;SDS011;4080;42.676;23.372;2023-10-19T11:16:02;11.57;;;9.27;;
8074;SDS011;4080;42.676;23.372;2023-10-19T11:18:31;9.67;;;8.80;;
8074;SDS011;4080;42.676;23.372;2023-10-19T11:21:00;9.57;;;8.70;;
8074;SDS011;4080;42.676;23.372;2023-10-19T11:23:38;9.07;;;8.27;;
8074;SDS011;4080;42.676;23.372;2023-10-19T11:26:07;9.80;;;8.70;;
8074;SDS011;4080;42.676;23.372;2023-10-19T11:28:37;9.53;;;8.10;;
8074;SDS011;4080;42.676;23.372;2023-10-19T11:31:18;11.23;;;8.17;;
8074;SDS011;4080;42.676;23.372;2023-10-19T11:33:47;10.07;;;8.40;;
8074;SDS011;4080;42.676;23.372;2023-10-19T11:36:15;8.70;;;7.83;;
8074;SDS011;4080;42.676;23.372;2023-10-19T11:38:43;11.90;;;9.03;;
8074;SDS011;4080;42.676;23.372;2023-10-19T11:41:11;8.83;;;7.73;;
8074;SDS011;4080;42.676;23.372;2023-10-19T11:43:40;9.60;;;8.70;;
8074;SDS011;4080;42.676;23.372;2023-10-19T11:46:08;9.20;;;8.40;;
8074;SDS011;4080;42.676;23.372;2023-10-19T11:48:36;8.73;;;8.03;;
8074;SDS011;4080;42.676;23.372;2023-10-19T11:51:05;9.57;;;8.47;;
8074;SDS011;4080;42.676;23.372;2023-10-19T11:53:32;13.00;;;8.80;;
8074;SDS011;4080;42.676;23.372;2023-10-19T11:56:01;8.90;;;7.97;;
8074;SDS011;4080;42.676;23.372;2023-10-19T11:58:31;9.27;;;8.37;;
8074;SDS011;4080;42.676;23.372;2023-10-19T12:01:01;8.60;;;7.80;;
8074;SDS011;4080;42.676;23.372;2023-10-19T12:03:30;8.50;;;7.67;;
8074;SDS011;4080;42.676;23.372;2023-10-19T12:06:00;9.63;;;8.63;;
8074;SDS011;4080;42.676;23.372;2023-10-19T12:08:29;8.33;;;7.53;;
8074;SDS011;4080;42.676;23.372;2023-10-19T12:10:56;10.10;;;9.10;;
8074;SDS011;4080;42.676;23.372;2023-10-19T12:13:23;9.37;;;8.53;;
8074;SDS011;4080;42.676;23.372;2023-10-19T12:15:50;8.40;;;7.60;;
8074;SDS011;4080;42.676;23.372;2023-10-19T12:18:21;9.03;;;8.13;;
8074;SDS011;4080;42.676;23.372;2023-10-19T12:20:48;10.93;;;9.83;;
8074;SDS011;4080;42.676;23.372;2023-10-19T12:23:15;9.37;;;8.40;;
8074;SDS011;4080;42.676;23.372;2023-10-19T12:25:42;8.43;;;7.53;;
8074;SDS011;4080;42.676;23.372;2023-10-19T12:28:08;7.60;;;6.90;;
8074;SDS011;4080;42.676;23.372;2023-10-19T12:30:39;8.40;;;6.60;;
8074;SDS011;4080;42.676;23.372;2023-10-19T12:33:07;7.93;;;7.00;;
8074;SDS011;4080;42.676;23.372;2023-10-19T12:35:38;7.60;;;6.90;;
8074;SDS011;4080;42.676;23.372;2023-10-19T12:38:14;7.77;;;6.97;;
8074;SDS011;4080;42.676;23.372;2023-10-19T12:40:42;8.70;;;6.40;;
8074;SDS011;4080;42.676;23.372;2023-10-19T12:43:11;5.93;;;5.43;;
8074;SDS011;4080;42.676;23.372;2023-10-19T12:45:39;6.90;;;6.30;;
8074;SDS011;4080;42.676;23.372;2023-10-19T12:48:06;6.57;;;6.07;;
8074;SDS011;4080;42.676;23.372;2023-10-19T12:50:36;6.50;;;5.90;;
8074;SDS011;4080;42.676;23.372;2023-10-19T12:53:06;6.10;;;5.50;;
8074;SDS011;4080;42.676;23.372;2023-10-19T12:55:33;7.00;;;6.30;;
8074;SDS011;4080;42.676;23.372;2023-10-19T12:58:02;7.77;;;6.10;;
8074;SDS011;4080;42.676;23.372;2023-10-19T13:00:34;8.40;;;6.07;;
8074;SDS011;4080;42.676;23.372;2023-10-19T13:03:09;6.13;;;5.63;;
8074;SDS011;4080;42.676;23.372;2023-10-19T13:05:40;6.33;;;5.73;;
8074;SDS011;4080;42.676;23.372;2023-10-19T13:08:09;7.47;;;5.50;;
8074;SDS011;4080;42.676;23.372;2023-10-19T13:10:38;5.63;;;5.13;;
8074;SDS011;4080;42.676;23.372;2023-10-19T13:13:08;5.80;;;5.30;;
8074;SDS011;4080;42.676;23.372;2023-10-19T13:15:36;5.57;;;5.07;;
8074;SDS011;4080;42.676;23.372;2023-10-19T13:18:05;7.67;;;4.90;;
8074;SDS011;4080;42.676;23.372;2023-10-19T13:20:34;8.07;;;5.33;;
8074;SDS011;4080;42.676;23.372;2023-10-19T13:23:05;7.73;;;5.10;;
8074;SDS011;4080;42.676;23.372;2023-10-19T13:25:36;6.00;;;5.37;;
8074;SDS011;4080;42.676;23.372;2023-10-19T13:28:12;5.10;;;4.70;;
8074;SDS011;4080;42.676;23.372;2023-10-19T13:30:40;6.20;;;5.13;;
8074;SDS011;4080;42.676;23.372;2023-10-19T13:33:07;7.30;;;5.07;;
8074;SDS011;4080;42.676;23.372;2023-10-19T13:35:36;6.10;;;5.17;;
8074;SDS011;4080;42.676;23.372;2023-10-19T13:38:06;7.00;;;5.00;;
8074;SDS011;4080;42.676;23.372;2023-10-19T13:40:34;5.47;;;4.63;;
8074;SDS011;4080;42.676;23.372;2023-10-19T13:43:01;5.73;;;4.50;;
8074;SDS011;4080;42.676;23.372;2023-10-19T13:45:31;5.47;;;4.97;;
8074;SDS011;4080;42.676;23.372;2023-10-19T13:47:59;5.70;;;5.10;;
8074;SDS011;4080;42.676;23.372;2023-10-19T13:50:27;6.70;;;4.83;;
8074;SDS011;4080;42.676;23.372;2023-10-19T13:52:55;6.13;;;4.60;;
8074;SDS011;4080;42.676;23.372;2023-10-19T13:55:24;5.70;;;5.13;;
8074;SDS011;4080;42.676;23.372;2023-10-19T13:57:51;5.90;;;5.30;;
8074;SDS011;4080;42.676;23.372;2023-10-19T14:00:20;5.37;;;4.60;;
8074;SDS011;4080;42.676;23.372;2023-10-19T14:02:49;7.37;;;5.10;;
8074;SDS011;4080;42.676;23.372;2023-10-19T14:05:17;7.30;;;4.80;;
8074;SDS011;4080;42.676;23.372;2023-10-19T14:07:45;8.53;;;5.27;;
8074;SDS011;4080;42.676;23.372;2023-10-19T14:10:13;8.40;;;4.90;;
8074;SDS011;4080;42.676;23.372;2023-10-19T14:12:43;7.13;;;5.43;;
8074;SDS011;4080;42.676;23.372;2023-10-19T14:15:12;6.87;;;5.13;;
8074;SDS011;4080;42.676;23.372;2023-10-19T14:17:40;7.13;;;4.93;;
8074;SDS011;4080;42.676;23.372;2023-10-19T14:20:07;7.43;;;4.70;;
8074;SDS011;4080;42.676;23.372;2023-10-19T14:22:38;7.30;;;4.90;;
8074;SDS011;4080;42.676;23.372;2023-10-19T14:25:06;7.03;;;4.90;;
8074;SDS011;4080;42.676;23.372;2023-10-19T14:27:37;6.77;;;4.90;;
8074;SDS011;4080;42.676;23.372;2023-10-19T14:30:07;7.23;;;5.60;;
8074;SDS011;4080;42.676;23.372;2023-10-19T14:32:36;6.53;;;5.27;;
8074;SDS011;4080;42.676;23.372;2023-10-19T14:35:04;8.63;;;5.43;;
8074;SDS011;4080;42.676;23.372;2023-10-19T14:37:34;5.40;;;4.90;;
8074;SDS011;4080;42.676;23.372;2023-10-19T14:40:04;6.00;;;4.60;;
8074;SDS011;4080;42.676;23.372;2023-10-19T14:42:36;6.57;;;4.70;;
8074;SDS011;4080;42.676;23.372;2023-10-19T14:45:05;4.80;;;4.40;;
8074;SDS011;4080;42.676;23.372;2023-10-19T14:47:36;5.70;;;4.50;;
8074;SDS011;4080;42.676;23.372;2023-10-19T14:50:06;5.73;;;3.97;;
8074;SDS011;4080;42.676;23.372;2023-10-19T14:52:39;5.10;;;4.60;;
8074;SDS011;4080;42.676;23.372;2023-10-19T14:55:09;5.13;;;4.57;;
8074;SDS011;4080;42.676;23.372;2023-10-19T14:57:37;6.20;;;5.60;;
8074;SDS011;4080;42.676;23.372;2023-10-19T15:00:07;5.70;;;5.10;;